sensor_id;sensor_type;location;lat;lon;timestamp;P1;durP1;ratioP1;P2;durP2;ratioP2
10430;SDS011;5262;59.958;17.726;2022-12-07T00:01:46;2.77;;;1.97;;
10430;SDS011;5262;59.958;17.726;2022-12-07T00:04:13;4.53;;;2.10;;
10430;SDS011;5262;59.958;17.726;2022-12-07T00:06:44;5.03;;;2.20;;
10430;SDS011;5262;59.958;17.726;2022-12-07T00:09:12;6.10;;;1.93;;
10430;SDS011;5262;59.958;17.726;2022-12-07T00:11:39;3.23;;;1.83;;
10430;SDS011;5262;59.958;17.726;2022-12-07T00:14:06;4.77;;;1.90;;
10430;SDS011;5262;59.958;17.726;2022-12-07T00:16:33;4.27;;;1.60;;
10430;SDS011;5262;59.958;17.726;2022-12-07T00:19:00;2.00;;;1.57;;
10430;SDS011;5262;59.958;17.726;2022-12-07T00:21:27;2.83;;;1.73;;
10430;SDS011;5262;59.958;17.726;2022-12-07T00:23:54;3.13;;;1.60;;
10430;SDS011;5262;59.958;17.726;2022-12-07T00:26:25;2.90;;;1.60;;
10430;SDS011;5262;59.958;17.726;2022-12-07T00:29:05;5.60;;;1.80;;
10430;SDS011;5262;59.958;17.726;2022-12-07T00:31:38;3.27;;;1.43;;
10430;SDS011;5262;59.958;17.726;2022-12-07T00:34:04;3.83;;;1.70;;
10430;SDS011;5262;59.958;17.726;2022-12-07T00:36:30;4.27;;;1.77;;
10430;SDS011;5262;59.958;17.726;2022-12-07T00:38:57;1.60;;;1.30;;
10430;SDS011;5262;59.958;17.726;2022-12-07T00:41:24;3.30;;;1.70;;
10430;SDS011;5262;59.958;17.726;2022-12-07T00:43:51;3.47;;;1.50;;
10430;SDS011;5262;59.958;17.726;2022-12-07T00:46:17;4.47;;;1.30;;
10430;SDS011;5262;59.958;17.726;2022-12-07T00:48:44;3.03;;;1.40;;
10430;SDS011;5262;59.958;17.726;2022-12-07T00:51:10;2.83;;;1.40;;
10430;SDS011;5262;59.958;17.726;2022-12-07T00:53:37;2.20;;;1.20;;
10430;SDS011;5262;59.958;17.726;2022-12-07T00:56:07;3.20;;;1.37;;
10430;SDS011;5262;59.958;17.726;2022-12-07T00:58:36;3.63;;;1.20;;
10430;SDS011;5262;59.958;17.726;2022-12-07T01:01:02;2.40;;;1.37;;
10430;SDS011;5262;59.958;17.726;2022-12-07T01:03:28;3.33;;;1.30;;
10430;SDS011;5262;59.958;17.726;2022-12-07T01:05:54;2.80;;;1.33;;
10430;SDS011;5262;59.958;17.726;2022-12-07T01:08:21;2.83;;;1.40;;
10430;SDS011;5262;59.958;17.726;2022-12-07T01:10:48;2.03;;;1.30;;
10430;SDS011;5262;59.958;17.726;2022-12-07T01:13:14;3.40;;;1.60;;
10430;SDS011;5262;59.958;17.726;2022-12-07T01:15:43;3.40;;;1.33;;
10430;SDS011;5262;59.958;17.726;2022-12-07T01:18:10;5.47;;;1.33;;
10430;SDS011;5262;59.958;17.726;2022-12-07T01:20:36;5.73;;;1.53;;
10430;SDS011;5262;59.958;17.726;2022-12-07T01:23:02;3.70;;;1.83;;
10430;SDS011;5262;59.958;17.726;2022-12-07T01:25:28;2.10;;;1.23;;
10430;SDS011;5262;59.958;17.726;2022-12-07T01:27:54;3.53;;;1.30;;
10430;SDS011;5262;59.958;17.726;2022-12-07T01:30:20;3.33;;;1.90;;
10430;SDS011;5262;59.958;17.726;2022-12-07T01:32:45;4.53;;;1.37;;
10430;SDS011;5262;59.958;17.726;2022-12-07T01:35:11;2.93;;;1.23;;
10430;SDS011;5262;59.958;17.726;2022-12-07T01:37:37;4.00;;;1.60;;
10430;SDS011;5262;59.958;17.726;2022-12-07T01:40:07;7.07;;;1.60;;
10430;SDS011;5262;59.958;17.726;2022-12-07T01:42:33;3.87;;;1.50;;
10430;SDS011;5262;59.958;17.726;2022-12-07T01:47:44;4.63;;;1.60;;
10430;SDS011;5262;59.958;17.726;2022-12-07T01:50:13;4.20;;;2.20;;
10430;SDS011;5262;59.958;17.726;2022-12-07T01:52:39;3.90;;;1.77;;
10430;SDS011;5262;59.958;17.726;2022-12-07T01:55:07;4.07;;;2.00;;
10430;SDS011;5262;59.958;17.726;2022-12-07T01:57:39;2.33;;;1.63;;
10430;SDS011;5262;59.958;17.726;2022-12-07T02:00:08;2.07;;;1.30;;
10430;SDS011;5262;59.958;17.726;2022-12-07T02:02:37;3.73;;;1.60;;
10430;SDS011;5262;59.958;17.726;2022-12-07T02:05:08;3.73;;;1.70;;
10430;SDS011;5262;59.958;17.726;2022-12-07T02:07:34;4.27;;;1.93;;
10430;SDS011;5262;59.958;17.726;2022-12-07T02:10:12;4.17;;;1.83;;
10430;SDS011;5262;59.958;17.726;2022-12-07T02:12:38;3.30;;;1.57;;
10430;SDS011;5262;59.958;17.726;2022-12-07T02:15:04;8.03;;;1.90;;
10430;SDS011;5262;59.958;17.726;2022-12-07T02:28:05;3.17;;;1.47;;
10430;SDS011;5262;59.958;17.726;2022-12-07T02:30:33;4.17;;;1.60;;
10430;SDS011;5262;59.958;17.726;2022-12-07T02:33:04;3.87;;;1.70;;
10430;SDS011;5262;59.958;17.726;2022-12-07T02:36:02;5.03;;;1.70;;
10430;SDS011;5262;59.958;17.726;2022-12-07T02:38:37;3.30;;;1.80;;
10430;SDS011;5262;59.958;17.726;2022-12-07T02:41:25;3.03;;;1.60;;
10430;SDS011;5262;59.958;17.726;2022-12-07T02:43:59;3.33;;;1.83;;
10430;SDS011;5262;59.958;17.726;2022-12-07T02:46:38;3.83;;;1.77;;
10430;SDS011;5262;59.958;17.726;2022-12-07T02:49:09;4.47;;;1.50;;
10430;SDS011;5262;59.958;17.726;2022-12-07T02:51:39;3.00;;;1.80;;
10430;SDS011;5262;59.958;17.726;2022-12-07T02:54:14;3.60;;;1.87;;
10430;SDS011;5262;59.958;17.726;2022-12-07T02:59:32;5.30;;;1.93;;
10430;SDS011;5262;59.958;17.726;2022-12-07T03:07:36;3.87;;;1.87;;
10430;SDS011;5262;59.958;17.726;2022-12-07T03:10:42;3.70;;;2.10;;
10430;SDS011;5262;59.958;17.726;2022-12-07T03:13:37;4.23;;;2.10;;
10430;SDS011;5262;59.958;17.726;2022-12-07T03:16:40;4.57;;;1.87;;
10430;SDS011;5262;59.958;17.726;2022-12-07T03:19:11;3.70;;;2.13;;
10430;SDS011;5262;59.958;17.726;2022-12-07T03:21:41;3.43;;;1.77;;
10430;SDS011;5262;59.958;17.726;2022-12-07T03:24:14;3.77;;;1.93;;
10430;SDS011;5262;59.958;17.726;2022-12-07T03:26:47;2.63;;;2.00;;
10430;SDS011;5262;59.958;17.726;2022-12-07T03:29:19;5.87;;;2.17;;
10430;SDS011;5262;59.958;17.726;2022-12-07T03:35:07;3.87;;;2.07;;
10430;SDS011;5262;59.958;17.726;2022-12-07T03:37:52;3.13;;;1.77;;
10430;SDS011;5262;59.958;17.726;2022-12-07T03:40:26;7.60;;;2.10;;
10430;SDS011;5262;59.958;17.726;2022-12-07T03:42:57;4.60;;;2.07;;
10430;SDS011;5262;59.958;17.726;2022-12-07T03:45:32;5.40;;;2.07;;
10430;SDS011;5262;59.958;17.726;2022-12-07T03:51:01;4.57;;;2.27;;
10430;SDS011;5262;59.958;17.726;2022-12-07T03:53:59;4.57;;;2.30;;
10430;SDS011;5262;59.958;17.726;2022-12-07T03:56:32;5.83;;;1.63;;
10430;SDS011;5262;59.958;17.726;2022-12-07T03:58:59;2.97;;;1.93;;
10430;SDS011;5262;59.958;17.726;2022-12-07T04:01:25;6.40;;;1.73;;
10430;SDS011;5262;59.958;17.726;2022-12-07T04:03:51;3.53;;;1.90;;
10430;SDS011;5262;59.958;17.726;2022-12-07T04:06:16;4.40;;;1.97;;
10430;SDS011;5262;59.958;17.726;2022-12-07T04:08:42;3.20;;;1.93;;
10430;SDS011;5262;59.958;17.726;2022-12-07T04:11:08;6.33;;;1.70;;
10430;SDS011;5262;59.958;17.726;2022-12-07T04:13:33;5.97;;;2.30;;
10430;SDS011;5262;59.958;17.726;2022-12-07T04:16:19;4.33;;;1.80;;
10430;SDS011;5262;59.958;17.726;2022-12-07T04:18:45;4.47;;;1.70;;
10430;SDS011;5262;59.958;17.726;2022-12-07T04:21:11;4.73;;;1.73;;
10430;SDS011;5262;59.958;17.726;2022-12-07T04:23:36;5.90;;;1.60;;
10430;SDS011;5262;59.958;17.726;2022-12-07T04:26:02;2.37;;;1.50;;
10430;SDS011;5262;59.958;17.726;2022-12-07T04:28:27;2.80;;;1.60;;
10430;SDS011;5262;59.958;17.726;2022-12-07T04:30:53;4.57;;;1.93;;
10430;SDS011;5262;59.958;17.726;2022-12-07T04:33:19;6.33;;;2.07;;
10430;SDS011;5262;59.958;17.726;2022-12-07T04:35:44;4.70;;;1.73;;
10430;SDS011;5262;59.958;17.726;2022-12-07T04:38:10;4.27;;;1.50;;
10430;SDS011;5262;59.958;17.726;2022-12-07T04:40:35;3.70;;;2.13;;
10430;SDS011;5262;59.958;17.726;2022-12-07T04:43:01;4.80;;;1.50;;
10430;SDS011;5262;59.958;17.726;2022-12-07T04:45:26;5.70;;;1.70;;
10430;SDS011;5262;59.958;17.726;2022-12-07T04:47:52;3.40;;;1.60;;
10430;SDS011;5262;59.958;17.726;2022-12-07T04:50:18;3.10;;;1.37;;
10430;SDS011;5262;59.958;17.726;2022-12-07T04:52:43;2.77;;;1.47;;
10430;SDS011;5262;59.958;17.726;2022-12-07T04:55:09;3.20;;;1.60;;
10430;SDS011;5262;59.958;17.726;2022-12-07T04:57:34;2.83;;;1.80;;
10430;SDS011;5262;59.958;17.726;2022-12-07T05:00:00;5.13;;;2.03;;
10430;SDS011;5262;59.958;17.726;2022-12-07T05:02:26;2.77;;;1.50;;
10430;SDS011;5262;59.958;17.726;2022-12-07T05:04:51;4.57;;;1.77;;
10430;SDS011;5262;59.958;17.726;2022-12-07T05:07:17;3.60;;;1.30;;
10430;SDS011;5262;59.958;17.726;2022-12-07T05:09:42;2.60;;;1.50;;
10430;SDS011;5262;59.958;17.726;2022-12-07T05:12:08;2.93;;;1.50;;
10430;SDS011;5262;59.958;17.726;2022-12-07T05:14:33;2.03;;;1.17;;
10430;SDS011;5262;59.958;17.726;2022-12-07T05:16:59;2.93;;;1.50;;
10430;SDS011;5262;59.958;17.726;2022-12-07T05:19:25;2.53;;;1.60;;
10430;SDS011;5262;59.958;17.726;2022-12-07T05:21:51;2.53;;;1.30;;
10430;SDS011;5262;59.958;17.726;2022-12-07T05:24:17;1.93;;;1.47;;
10430;SDS011;5262;59.958;17.726;2022-12-07T05:26:43;2.40;;;1.63;;
10430;SDS011;5262;59.958;17.726;2022-12-07T05:29:10;4.00;;;1.50;;
10430;SDS011;5262;59.958;17.726;2022-12-07T05:31:37;3.27;;;1.67;;
10430;SDS011;5262;59.958;17.726;2022-12-07T05:34:03;3.27;;;1.70;;
10430;SDS011;5262;59.958;17.726;2022-12-07T05:36:28;3.73;;;2.03;;
10430;SDS011;5262;59.958;17.726;2022-12-07T05:38:56;4.33;;;1.90;;
10430;SDS011;5262;59.958;17.726;2022-12-07T05:41:22;2.70;;;1.90;;
10430;SDS011;5262;59.958;17.726;2022-12-07T05:44:07;4.53;;;2.33;;
10430;SDS011;5262;59.958;17.726;2022-12-07T05:46:32;3.07;;;1.90;;
10430;SDS011;5262;59.958;17.726;2022-12-07T05:48:58;4.10;;;2.30;;
10430;SDS011;5262;59.958;17.726;2022-12-07T05:51:24;4.93;;;2.10;;
10430;SDS011;5262;59.958;17.726;2022-12-07T05:53:50;4.00;;;1.80;;
10430;SDS011;5262;59.958;17.726;2022-12-07T05:56:15;6.50;;;1.70;;
10430;SDS011;5262;59.958;17.726;2022-12-07T05:58:41;6.00;;;2.07;;
10430;SDS011;5262;59.958;17.726;2022-12-07T06:01:25;5.63;;;2.80;;
10430;SDS011;5262;59.958;17.726;2022-12-07T06:03:51;6.67;;;2.27;;
10430;SDS011;5262;59.958;17.726;2022-12-07T06:06:17;5.00;;;1.73;;
10430;SDS011;5262;59.958;17.726;2022-12-07T06:08:42;2.93;;;1.60;;
10430;SDS011;5262;59.958;17.726;2022-12-07T06:11:08;4.77;;;1.70;;
10430;SDS011;5262;59.958;17.726;2022-12-07T06:13:52;5.50;;;2.63;;
10430;SDS011;5262;59.958;17.726;2022-12-07T06:16:18;4.20;;;1.70;;
10430;SDS011;5262;59.958;17.726;2022-12-07T06:18:43;11.87;;;3.57;;
10430;SDS011;5262;59.958;17.726;2022-12-07T06:21:09;6.27;;;3.03;;
10430;SDS011;5262;59.958;17.726;2022-12-07T06:23:34;5.43;;;2.93;;
10430;SDS011;5262;59.958;17.726;2022-12-07T06:26:00;8.47;;;2.73;;
10430;SDS011;5262;59.958;17.726;2022-12-07T06:28:26;5.03;;;2.60;;
10430;SDS011;5262;59.958;17.726;2022-12-07T06:30:58;3.50;;;1.80;;
10430;SDS011;5262;59.958;17.726;2022-12-07T06:33:24;7.20;;;2.40;;
10430;SDS011;5262;59.958;17.726;2022-12-07T06:35:50;4.83;;;1.83;;
10430;SDS011;5262;59.958;17.726;2022-12-07T06:38:16;3.87;;;2.20;;
10430;SDS011;5262;59.958;17.726;2022-12-07T06:40:41;5.50;;;2.23;;
10430;SDS011;5262;59.958;17.726;2022-12-07T06:43:07;4.80;;;1.90;;
10430;SDS011;5262;59.958;17.726;2022-12-07T06:45:33;4.07;;;1.70;;
10430;SDS011;5262;59.958;17.726;2022-12-07T06:47:58;3.23;;;1.90;;
10430;SDS011;5262;59.958;17.726;2022-12-07T06:50:24;3.10;;;1.80;;
10430;SDS011;5262;59.958;17.726;2022-12-07T06:52:50;2.80;;;1.70;;
10430;SDS011;5262;59.958;17.726;2022-12-07T06:55:16;4.53;;;1.73;;
10430;SDS011;5262;59.958;17.726;2022-12-07T06:57:42;2.17;;;1.63;;
10430;SDS011;5262;59.958;17.726;2022-12-07T07:00:08;5.07;;;2.30;;
10430;SDS011;5262;59.958;17.726;2022-12-07T07:02:34;6.40;;;2.13;;
10430;SDS011;5262;59.958;17.726;2022-12-07T07:05:00;4.40;;;2.10;;
10430;SDS011;5262;59.958;17.726;2022-12-07T07:07:25;3.30;;;1.67;;
10430;SDS011;5262;59.958;17.726;2022-12-07T07:09:51;4.07;;;1.87;;
10430;SDS011;5262;59.958;17.726;2022-12-07T07:12:17;6.93;;;2.40;;
10430;SDS011;5262;59.958;17.726;2022-12-07T07:14:42;5.23;;;1.93;;
10430;SDS011;5262;59.958;17.726;2022-12-07T07:17:08;5.17;;;1.93;;
10430;SDS011;5262;59.958;17.726;2022-12-07T07:19:33;6.07;;;2.23;;
10430;SDS011;5262;59.958;17.726;2022-12-07T07:21:59;6.60;;;1.63;;
10430;SDS011;5262;59.958;17.726;2022-12-07T07:24:25;3.13;;;1.97;;
10430;SDS011;5262;59.958;17.726;2022-12-07T07:26:51;3.80;;;1.80;;
10430;SDS011;5262;59.958;17.726;2022-12-07T07:29:16;4.87;;;1.50;;
10430;SDS011;5262;59.958;17.726;2022-12-07T07:31:42;3.03;;;1.63;;
10430;SDS011;5262;59.958;17.726;2022-12-07T07:34:08;3.47;;;1.70;;
10430;SDS011;5262;59.958;17.726;2022-12-07T07:36:33;5.50;;;1.83;;
10430;SDS011;5262;59.958;17.726;2022-12-07T07:38:59;4.70;;;1.63;;
10430;SDS011;5262;59.958;17.726;2022-12-07T07:41:24;3.07;;;1.70;;
10430;SDS011;5262;59.958;17.726;2022-12-07T07:43:50;2.93;;;1.50;;
10430;SDS011;5262;59.958;17.726;2022-12-07T07:46:16;3.23;;;1.57;;
10430;SDS011;5262;59.958;17.726;2022-12-07T07:48:41;6.50;;;2.03;;
10430;SDS011;5262;59.958;17.726;2022-12-07T07:51:07;4.60;;;2.23;;
10430;SDS011;5262;59.958;17.726;2022-12-07T07:53:33;3.27;;;1.70;;
10430;SDS011;5262;59.958;17.726;2022-12-07T07:55:59;2.50;;;1.60;;
10430;SDS011;5262;59.958;17.726;2022-12-07T07:58:24;4.77;;;2.10;;
10430;SDS011;5262;59.958;17.726;2022-12-07T08:00:50;6.40;;;2.17;;
10430;SDS011;5262;59.958;17.726;2022-12-07T08:03:16;5.00;;;2.57;;
10430;SDS011;5262;59.958;17.726;2022-12-07T08:05:42;5.90;;;2.37;;
10430;SDS011;5262;59.958;17.726;2022-12-07T08:08:08;4.67;;;2.80;;
10430;SDS011;5262;59.958;17.726;2022-12-07T08:10:34;4.37;;;2.23;;
10430;SDS011;5262;59.958;17.726;2022-12-07T08:13:00;5.60;;;2.83;;
10430;SDS011;5262;59.958;17.726;2022-12-07T08:15:39;6.23;;;2.47;;
10430;SDS011;5262;59.958;17.726;2022-12-07T08:18:06;4.27;;;2.13;;
10430;SDS011;5262;59.958;17.726;2022-12-07T08:20:33;5.00;;;1.90;;
10430;SDS011;5262;59.958;17.726;2022-12-07T08:23:01;3.53;;;2.00;;
10430;SDS011;5262;59.958;17.726;2022-12-07T08:25:27;5.37;;;2.17;;
10430;SDS011;5262;59.958;17.726;2022-12-07T08:27:53;5.03;;;1.90;;
10430;SDS011;5262;59.958;17.726;2022-12-07T08:30:19;2.50;;;1.83;;
10430;SDS011;5262;59.958;17.726;2022-12-07T08:32:46;7.33;;;1.90;;
10430;SDS011;5262;59.958;17.726;2022-12-07T08:35:12;2.97;;;2.00;;
10430;SDS011;5262;59.958;17.726;2022-12-07T08:37:38;5.77;;;2.00;;
10430;SDS011;5262;59.958;17.726;2022-12-07T08:40:05;2.50;;;1.30;;
10430;SDS011;5262;59.958;17.726;2022-12-07T08:42:32;4.97;;;2.00;;
10430;SDS011;5262;59.958;17.726;2022-12-07T08:45:06;2.47;;;1.80;;
10430;SDS011;5262;59.958;17.726;2022-12-07T08:47:37;5.33;;;2.10;;
10430;SDS011;5262;59.958;17.726;2022-12-07T08:50:15;5.67;;;2.33;;
10430;SDS011;5262;59.958;17.726;2022-12-07T08:52:42;4.40;;;2.40;;
10430;SDS011;5262;59.958;17.726;2022-12-07T08:55:11;6.30;;;2.80;;
10430;SDS011;5262;59.958;17.726;2022-12-07T08:57:37;8.87;;;4.03;;
10430;SDS011;5262;59.958;17.726;2022-12-07T09:00:04;11.43;;;4.87;;
10430;SDS011;5262;59.958;17.726;2022-12-07T09:02:31;5.43;;;3.37;;
10430;SDS011;5262;59.958;17.726;2022-12-07T09:04:57;6.23;;;3.97;;
10430;SDS011;5262;59.958;17.726;2022-12-07T09:07:22;7.17;;;3.47;;
10430;SDS011;5262;59.958;17.726;2022-12-07T09:09:49;8.00;;;3.20;;
10430;SDS011;5262;59.958;17.726;2022-12-07T09:12:14;5.20;;;3.03;;
10430;SDS011;5262;59.958;17.726;2022-12-07T09:14:40;7.07;;;3.17;;
10430;SDS011;5262;59.958;17.726;2022-12-07T09:17:07;6.27;;;2.67;;
10430;SDS011;5262;59.958;17.726;2022-12-07T09:19:33;4.20;;;3.10;;
10430;SDS011;5262;59.958;17.726;2022-12-07T09:21:59;5.27;;;3.20;;
10430;SDS011;5262;59.958;17.726;2022-12-07T09:24:24;5.00;;;3.40;;
10430;SDS011;5262;59.958;17.726;2022-12-07T09:26:50;6.97;;;4.07;;
10430;SDS011;5262;59.958;17.726;2022-12-07T09:29:15;10.00;;;4.20;;
10430;SDS011;5262;59.958;17.726;2022-12-07T09:31:41;8.43;;;4.07;;
10430;SDS011;5262;59.958;17.726;2022-12-07T09:34:06;6.53;;;4.10;;
10430;SDS011;5262;59.958;17.726;2022-12-07T09:36:32;5.57;;;3.90;;
10430;SDS011;5262;59.958;17.726;2022-12-07T09:38:58;4.53;;;3.50;;
10430;SDS011;5262;59.958;17.726;2022-12-07T09:41:24;4.37;;;3.40;;
10430;SDS011;5262;59.958;17.726;2022-12-07T09:43:52;5.63;;;3.23;;
10430;SDS011;5262;59.958;17.726;2022-12-07T09:46:22;5.97;;;3.03;;
10430;SDS011;5262;59.958;17.726;2022-12-07T09:48:48;4.67;;;2.67;;
10430;SDS011;5262;59.958;17.726;2022-12-07T09:51:16;4.20;;;2.50;;
10430;SDS011;5262;59.958;17.726;2022-12-07T09:53:46;5.23;;;3.03;;
10430;SDS011;5262;59.958;17.726;2022-12-07T09:56:13;6.43;;;3.10;;
10430;SDS011;5262;59.958;17.726;2022-12-07T09:58:40;5.57;;;3.27;;
10430;SDS011;5262;59.958;17.726;2022-12-07T10:03:33;4.07;;;2.30;;
10430;SDS011;5262;59.958;17.726;2022-12-07T10:06:00;5.40;;;2.67;;
10430;SDS011;5262;59.958;17.726;2022-12-07T10:08:27;4.43;;;2.27;;
10430;SDS011;5262;59.958;17.726;2022-12-07T10:10:54;4.43;;;2.50;;
10430;SDS011;5262;59.958;17.726;2022-12-07T10:13:37;6.17;;;2.63;;
10430;SDS011;5262;59.958;17.726;2022-12-07T10:16:32;5.97;;;2.57;;
10430;SDS011;5262;59.958;17.726;2022-12-07T10:22:02;7.27;;;2.40;;
10430;SDS011;5262;59.958;17.726;2022-12-07T10:24:28;13.13;;;5.40;;
10430;SDS011;5262;59.958;17.726;2022-12-07T10:26:54;4.73;;;2.50;;
10430;SDS011;5262;59.958;17.726;2022-12-07T10:29:28;7.00;;;2.77;;
10430;SDS011;5262;59.958;17.726;2022-12-07T10:32:03;8.07;;;5.00;;
10430;SDS011;5262;59.958;17.726;2022-12-07T10:34:38;6.37;;;4.60;;
10430;SDS011;5262;59.958;17.726;2022-12-07T10:42:16;15.67;;;7.17;;
10430;SDS011;5262;59.958;17.726;2022-12-07T10:44:48;32.33;;;13.30;;
10430;SDS011;5262;59.958;17.726;2022-12-07T10:47:18;26.57;;;14.80;;
10430;SDS011;5262;59.958;17.726;2022-12-07T10:52:30;23.63;;;11.20;;
10430;SDS011;5262;59.958;17.726;2022-12-07T10:55:12;22.93;;;12.97;;
10430;SDS011;5262;59.958;17.726;2022-12-07T11:06:51;16.37;;;7.47;;
10430;SDS011;5262;59.958;17.726;2022-12-07T11:09:39;8.63;;;4.90;;
10430;SDS011;5262;59.958;17.726;2022-12-07T11:15:07;4.33;;;2.87;;
10430;SDS011;5262;59.958;17.726;2022-12-07T11:18:03;3.23;;;1.70;;
10430;SDS011;5262;59.958;17.726;2022-12-07T11:20:42;3.77;;;1.97;;
10430;SDS011;5262;59.958;17.726;2022-12-07T11:25:55;7.67;;;2.37;;
10430;SDS011;5262;59.958;17.726;2022-12-07T11:31:23;9.77;;;4.90;;
10430;SDS011;5262;59.958;17.726;2022-12-07T11:36:40;10.30;;;4.63;;
10430;SDS011;5262;59.958;17.726;2022-12-07T11:41:47;10.23;;;4.87;;
10430;SDS011;5262;59.958;17.726;2022-12-07T11:44:23;8.17;;;3.93;;
10430;SDS011;5262;59.958;17.726;2022-12-07T11:47:06;4.53;;;3.00;;
10430;SDS011;5262;59.958;17.726;2022-12-07T11:49:41;7.00;;;3.30;;
10430;SDS011;5262;59.958;17.726;2022-12-07T11:52:13;4.33;;;2.40;;
10430;SDS011;5262;59.958;17.726;2022-12-07T11:54:51;6.30;;;3.73;;
10430;SDS011;5262;59.958;17.726;2022-12-07T11:57:30;7.17;;;3.33;;
10430;SDS011;5262;59.958;17.726;2022-12-07T12:00:01;5.00;;;1.93;;
10430;SDS011;5262;59.958;17.726;2022-12-07T12:02:37;3.33;;;2.00;;
10430;SDS011;5262;59.958;17.726;2022-12-07T12:07:46;5.33;;;3.43;;
10430;SDS011;5262;59.958;17.726;2022-12-07T12:10:19;6.70;;;3.13;;
10430;SDS011;5262;59.958;17.726;2022-12-07T12:12:57;5.60;;;3.03;;
10430;SDS011;5262;59.958;17.726;2022-12-07T12:15:47;4.57;;;2.20;;
10430;SDS011;5262;59.958;17.726;2022-12-07T12:21:28;5.63;;;2.57;;
10430;SDS011;5262;59.958;17.726;2022-12-07T12:23:56;3.43;;;1.87;;
10430;SDS011;5262;59.958;17.726;2022-12-07T12:26:36;3.37;;;2.40;;
10430;SDS011;5262;59.958;17.726;2022-12-07T12:29:04;5.70;;;3.33;;
10430;SDS011;5262;59.958;17.726;2022-12-07T12:31:38;9.37;;;3.70;;
10430;SDS011;5262;59.958;17.726;2022-12-07T12:36:55;16.20;;;5.70;;
10430;SDS011;5262;59.958;17.726;2022-12-07T12:39:22;16.73;;;6.67;;
10430;SDS011;5262;59.958;17.726;2022-12-07T12:41:55;14.17;;;6.40;;
10430;SDS011;5262;59.958;17.726;2022-12-07T12:46:54;7.23;;;3.50;;
10430;SDS011;5262;59.958;17.726;2022-12-07T12:54:31;6.80;;;2.50;;
10430;SDS011;5262;59.958;17.726;2022-12-07T12:59:34;4.83;;;2.30;;
10430;SDS011;5262;59.958;17.726;2022-12-07T13:04:52;5.77;;;2.97;;
10430;SDS011;5262;59.958;17.726;2022-12-07T13:12:56;6.40;;;3.20;;
10430;SDS011;5262;59.958;17.726;2022-12-07T13:20:54;4.43;;;3.03;;
10430;SDS011;5262;59.958;17.726;2022-12-07T13:31:46;4.80;;;3.30;;
10430;SDS011;5262;59.958;17.726;2022-12-07T13:34:40;5.07;;;3.10;;
10430;SDS011;5262;59.958;17.726;2022-12-07T13:37:26;8.13;;;4.53;;
10430;SDS011;5262;59.958;17.726;2022-12-07T13:40:00;11.40;;;6.57;;
10430;SDS011;5262;59.958;17.726;2022-12-07T13:42:43;12.83;;;7.60;;
10430;SDS011;5262;59.958;17.726;2022-12-07T13:45:28;11.77;;;6.80;;
10430;SDS011;5262;59.958;17.726;2022-12-07T13:48:15;11.53;;;6.57;;
10430;SDS011;5262;59.958;17.726;2022-12-07T13:50:56;11.70;;;6.73;;
10430;SDS011;5262;59.958;17.726;2022-12-07T13:53:23;11.67;;;6.87;;
10430;SDS011;5262;59.958;17.726;2022-12-07T13:55:50;11.67;;;6.90;;
10430;SDS011;5262;59.958;17.726;2022-12-07T13:58:16;11.33;;;6.57;;
10430;SDS011;5262;59.958;17.726;2022-12-07T14:00:42;11.40;;;5.17;;
10430;SDS011;5262;59.958;17.726;2022-12-07T14:05:37;6.90;;;4.40;;
10430;SDS011;5262;59.958;17.726;2022-12-07T14:13:18;7.57;;;3.80;;
10430;SDS011;5262;59.958;17.726;2022-12-07T14:16:03;7.27;;;4.00;;
10430;SDS011;5262;59.958;17.726;2022-12-07T14:18:53;7.93;;;4.80;;
10430;SDS011;5262;59.958;17.726;2022-12-07T14:21:22;16.53;;;6.60;;
10430;SDS011;5262;59.958;17.726;2022-12-07T14:24:02;17.13;;;8.27;;
10430;SDS011;5262;59.958;17.726;2022-12-07T14:26:40;14.80;;;7.80;;
10430;SDS011;5262;59.958;17.726;2022-12-07T14:29:27;20.43;;;9.70;;
10430;SDS011;5262;59.958;17.726;2022-12-07T14:31:58;17.87;;;9.80;;
10430;SDS011;5262;59.958;17.726;2022-12-07T14:34:52;15.87;;;8.00;;
10430;SDS011;5262;59.958;17.726;2022-12-07T14:37:18;7.20;;;5.23;;
10430;SDS011;5262;59.958;17.726;2022-12-07T14:39:44;9.77;;;5.97;;
10430;SDS011;5262;59.958;17.726;2022-12-07T14:42:10;13.33;;;6.47;;
10430;SDS011;5262;59.958;17.726;2022-12-07T14:44:36;9.10;;;4.97;;
10430;SDS011;5262;59.958;17.726;2022-12-07T14:47:02;10.00;;;5.53;;
10430;SDS011;5262;59.958;17.726;2022-12-07T14:49:27;13.00;;;5.07;;
10430;SDS011;5262;59.958;17.726;2022-12-07T14:51:53;7.93;;;4.40;;
10430;SDS011;5262;59.958;17.726;2022-12-07T14:54:19;11.10;;;4.47;;
10430;SDS011;5262;59.958;17.726;2022-12-07T14:56:46;6.53;;;4.20;;
10430;SDS011;5262;59.958;17.726;2022-12-07T14:59:16;5.27;;;4.07;;
10430;SDS011;5262;59.958;17.726;2022-12-07T15:01:42;8.20;;;4.43;;
10430;SDS011;5262;59.958;17.726;2022-12-07T15:04:08;7.60;;;5.37;;
10430;SDS011;5262;59.958;17.726;2022-12-07T15:06:33;13.17;;;7.13;;
10430;SDS011;5262;59.958;17.726;2022-12-07T15:08:59;15.47;;;6.93;;
10430;SDS011;5262;59.958;17.726;2022-12-07T15:11:25;14.77;;;6.93;;
10430;SDS011;5262;59.958;17.726;2022-12-07T15:13:50;11.67;;;5.97;;
10430;SDS011;5262;59.958;17.726;2022-12-07T15:16:36;11.33;;;6.67;;
10430;SDS011;5262;59.958;17.726;2022-12-07T15:19:04;13.20;;;6.83;;
10430;SDS011;5262;59.958;17.726;2022-12-07T15:21:31;28.93;;;13.10;;
10430;SDS011;5262;59.958;17.726;2022-12-07T15:23:56;28.87;;;12.90;;
10430;SDS011;5262;59.958;17.726;2022-12-07T15:26:22;28.57;;;12.50;;
10430;SDS011;5262;59.958;17.726;2022-12-07T15:28:47;24.20;;;9.93;;
10430;SDS011;5262;59.958;17.726;2022-12-07T15:31:13;17.30;;;7.97;;
10430;SDS011;5262;59.958;17.726;2022-12-07T15:33:40;17.90;;;8.53;;
10430;SDS011;5262;59.958;17.726;2022-12-07T15:36:06;16.03;;;9.20;;
10430;SDS011;5262;59.958;17.726;2022-12-07T15:38:32;13.77;;;8.17;;
10430;SDS011;5262;59.958;17.726;2022-12-07T15:40:57;14.43;;;7.90;;
10430;SDS011;5262;59.958;17.726;2022-12-07T15:43:23;11.13;;;6.67;;
10430;SDS011;5262;59.958;17.726;2022-12-07T15:46:07;13.17;;;7.63;;
10430;SDS011;5262;59.958;17.726;2022-12-07T15:48:33;16.20;;;8.77;;
10430;SDS011;5262;59.958;17.726;2022-12-07T15:51:05;16.33;;;8.90;;
10430;SDS011;5262;59.958;17.726;2022-12-07T15:53:32;13.97;;;8.53;;
10430;SDS011;5262;59.958;17.726;2022-12-07T15:55:59;22.87;;;10.20;;
10430;SDS011;5262;59.958;17.726;2022-12-07T15:58:25;23.57;;;11.10;;
10430;SDS011;5262;59.958;17.726;2022-12-07T16:00:51;23.47;;;11.50;;
10430;SDS011;5262;59.958;17.726;2022-12-07T16:03:16;19.23;;;10.27;;
10430;SDS011;5262;59.958;17.726;2022-12-07T16:05:48;16.03;;;8.57;;
10430;SDS011;5262;59.958;17.726;2022-12-07T16:08:17;14.40;;;8.30;;
10430;SDS011;5262;59.958;17.726;2022-12-07T16:10:43;16.00;;;7.87;;
10430;SDS011;5262;59.958;17.726;2022-12-07T16:13:09;19.33;;;9.07;;
10430;SDS011;5262;59.958;17.726;2022-12-07T16:15:41;17.27;;;9.20;;
10430;SDS011;5262;59.958;17.726;2022-12-07T16:18:08;19.67;;;8.47;;
10430;SDS011;5262;59.958;17.726;2022-12-07T16:20:34;20.17;;;8.70;;
10430;SDS011;5262;59.958;17.726;2022-12-07T16:23:00;10.87;;;6.33;;
10430;SDS011;5262;59.958;17.726;2022-12-07T16:25:26;17.90;;;6.80;;
10430;SDS011;5262;59.958;17.726;2022-12-07T16:27:52;9.00;;;5.13;;
10430;SDS011;5262;59.958;17.726;2022-12-07T16:30:18;11.83;;;5.23;;
10430;SDS011;5262;59.958;17.726;2022-12-07T16:32:44;8.87;;;4.93;;
10430;SDS011;5262;59.958;17.726;2022-12-07T16:35:10;9.90;;;5.30;;
10430;SDS011;5262;59.958;17.726;2022-12-07T16:37:36;16.13;;;6.90;;
10430;SDS011;5262;59.958;17.726;2022-12-07T16:40:02;10.83;;;6.47;;
10430;SDS011;5262;59.958;17.726;2022-12-07T16:42:32;13.23;;;7.63;;
10430;SDS011;5262;59.958;17.726;2022-12-07T16:44:59;12.67;;;6.20;;
10430;SDS011;5262;59.958;17.726;2022-12-07T16:47:25;17.70;;;8.10;;
10430;SDS011;5262;59.958;17.726;2022-12-07T16:49:51;29.33;;;11.37;;
10430;SDS011;5262;59.958;17.726;2022-12-07T16:52:17;28.10;;;13.20;;